Time;durP1;ratioP1;P1;durP2;ratioP2;P2;SDS_P1;SDS_P2;PMS_P1;PMS_P2;Temp;Humidity;BMP_temperature;BMP_pressure;BME280_temperature;BME280_humidity;BME280_pressure;Samples;Min_cycle;Max_cycle;Signal;HPM_P1;HPM_P2
2022/05/03 00:01:33;;;;;;;6.17;4.17;;;;;;;11.29;55.26;101828.44;5208871;28;20096;-75
2022/05/03 00:04:24;;;;;;;8.63;5.13;;;;;;;11.31;54.88;101834.47;5212153;28;20026;-74
2022/05/03 00:07:05;;;;;;;8.67;4.40;;;;;;;11.08;56.26;101831.97;5211631;28;20509;-73
2022/05/03 00:09:48;;;;;;;5.30;3.97;;;;;;;11.01;56.22;101841.06;5207068;28;20034;-74
2022/05/03 00:12:23;;;;;;;4.63;3.80;;;;;;;10.78;56.99;101832.47;5209409;28;20128;-71
2022/05/03 00:14:57;;;;;;;7.60;4.03;;;;;;;10.72;57.42;101837.97;5210147;28;20069;-74
2022/05/03 00:17:30;;;;;;;5.22;4.30;;;;;;;10.68;57.33;101831.19;5204674;28;20460;-74
2022/05/03 00:20:03;;;;;;;10.23;4.73;;;;;;;10.68;57.48;101825.94;5209338;28;20065;-74
2022/05/03 00:22:35;;;;;;;6.07;3.90;;;;;;;10.77;56.90;101825.50;5211676;28;20044;-75
2022/05/03 00:25:07;;;;;;;4.43;3.63;;;;;;;10.56;57.90;101820.31;5209283;28;20036;-75
2022/05/03 00:27:39;;;;;;;4.30;3.73;;;;;;;10.55;57.91;101821.25;5211949;28;20025;-74
2022/05/03 00:30:11;;;;;;;6.97;4.10;;;;;;;10.59;57.47;101828.06;5209824;28;20026;-75
2022/05/03 00:32:42;;;;;;;9.40;3.97;;;;;;;10.55;57.30;101802.91;5210640;28;20085;-74
2022/05/03 00:35:16;;;;;;;6.13;4.33;;;;;;;10.34;58.35;101813.38;5211193;28;20048;-75
2022/05/03 00:37:47;;;;;;;6.57;4.43;;;;;;;10.46;58.07;101811.13;5210996;28;20133;-74
2022/05/03 00:40:21;;;;;;;6.40;4.03;;;;;;;10.43;57.96;101811.25;5207872;28;20063;-74
2022/05/03 00:43:12;;;;;;;7.00;4.00;;;;;;;10.58;57.41;101815.88;5206483;28;20041;-74
2022/05/03 00:46:01;;;;;;;9.50;5.00;;;;;;;10.48;57.79;101814.56;5204930;28;20206;-75
2022/05/03 00:49:03;;;;;;;6.70;4.83;;;;;;;10.46;57.37;101824.22;5205500;28;20026;-75
2022/05/03 00:51:43;;;;;;;7.20;4.10;;;;;;;10.29;58.22;101815.34;5210628;28;20045;-75
2022/05/03 00:54:44;;;;;;;6.37;3.90;;;;;;;10.38;57.79;101820.19;5210118;28;20080;-75
2022/05/03 00:57:45;;;;;;;7.03;4.40;;;;;;;10.46;56.96;101813.75;5213130;28;20033;-75
2022/05/03 01:00:17;;;;;;;6.27;4.40;;;;;;;10.12;58.49;101818.69;5212328;28;20025;-75
2022/05/03 01:02:50;;;;;;;5.97;3.73;;;;;;;10.21;58.65;101823.50;5208262;28;20077;-75
2022/05/03 01:05:57;;;;;;;6.78;4.22;;;;;;;10.20;58.30;101818.34;5211773;28;20418;-75
2022/05/03 01:08:36;;;;;;;6.33;4.53;;;;;;;10.42;57.85;101813.03;5221988;23;20104;-75
2022/05/03 01:11:26;;;;;;;6.37;3.50;;;;;;;10.45;57.59;101819.91;5210236;28;20140;-75
2022/05/03 01:14:10;;;;;;;5.13;3.87;;;;;;;10.07;58.49;101805.78;5204166;28;20498;-75
2022/05/03 01:17:05;;;;;;;7.15;4.28;;;;;;;10.51;56.64;101811.81;5198071;28;20116;-74
2022/05/03 01:19:59;;;;;;;8.30;4.28;;;;;;;10.09;58.54;101817.03;5197501;28;20076;-75
2022/05/03 01:23:09;;;;;;;5.57;3.90;;;;;;;10.17;57.89;101816.72;5213404;28;20030;-75
2022/05/03 01:25:44;;;;;;;5.70;4.33;;;;;;;10.02;58.97;101812.97;5196739;28;20120;-74
2022/05/03 01:29:10;;;;;;;6.50;3.80;;;;;;;10.22;57.81;101813.91;5209665;28;20510;-74
2022/05/03 01:31:42;;;;;;;7.00;4.63;;;;;;;9.57;60.01;101813.03;5199534;28;20095;-74
2022/05/03 01:34:19;;;;;;;5.30;4.50;;;;;;;9.91;59.15;101805.59;5209654;28;20083;-74
2022/05/03 01:37:17;;;;;;;5.10;4.20;;;;;;;10.13;58.41;101809.91;5211993;28;20037;-74
2022/05/03 01:40:06;;;;;;;6.53;4.37;;;;;;;9.84;59.43;101811.97;5209022;28;20121;-75
2022/05/03 01:42:50;;;;;;;6.90;3.90;;;;;;;9.70;59.48;101807.31;5227384;28;20038;-74
2022/05/03 01:45:35;;;;;;;7.00;4.27;;;;;;;9.64;59.78;101796.19;5223165;28;20221;-75
2022/05/03 01:48:18;;;;;;;6.63;4.43;;;;;;;9.55;60.42;101810.47;5210244;28;20034;-75
2022/05/03 01:51:00;;;;;;;7.63;4.90;;;;;;;9.44;60.42;101808.28;5210897;28;20036;-74
2022/05/03 01:53:42;;;;;;;6.47;5.17;;;;;;;9.35;60.83;101799.97;5210150;28;20041;-75
2022/05/03 01:56:38;;;;;;;7.83;5.33;;;;;;;9.63;59.50;101798.88;5210886;28;20029;-74
2022/05/03 01:59:24;;;;;;;5.67;4.27;;;;;;;9.54;59.88;101800.09;5207381;28;20518;-75
2022/05/03 02:01:59;;;;;;;9.17;4.43;;;;;;;9.36;60.67;101807.75;5211037;28;20034;-75
2022/05/03 02:05:07;;;;;;;5.53;4.77;;;;;;;9.48;60.11;101809.00;5210164;28;20488;-75
2022/05/03 02:07:58;;;;;;;7.00;4.07;;;;;;;9.62;59.31;101797.16;5198309;28;20521;-75
2022/05/03 02:10:49;;;;;;;8.83;3.83;;;;;;;9.39;60.33;101804.16;5205958;28;20038;-75
2022/05/03 02:13:28;;;;;;;6.93;4.20;;;;;;;9.26;60.85;101798.56;5205175;28;20042;-75
2022/05/03 02:16:09;;;;;;;5.57;4.30;;;;;;;9.27;60.96;101800.25;5211445;28;20064;-73
2022/05/03 02:18:59;;;;;;;6.97;5.03;;;;;;;9.27;60.57;101789.78;5210398;28;20038;-74
2022/05/03 02:21:46;;;;;;;5.97;4.33;;;;;;;9.30;60.53;101792.31;5209344;28;20155;-75
2022/05/03 02:24:27;;;;;;;5.93;4.07;;;;;;;9.24;60.91;101789.91;5226409;28;20083;-74
2022/05/03 02:27:07;;;;;;;8.37;4.40;;;;;;;9.11;61.29;101793.00;5208741;28;20029;-75
2022/05/03 02:29:58;;;;;;;6.73;4.10;;;;;;;9.11;60.73;101785.16;5210836;28;20055;-75
2022/05/03 02:32:54;;;;;;;6.53;4.50;;;;;;;9.17;60.60;101798.00;5213695;28;20506;-75
2022/05/03 02:35:31;;;;;;;5.90;4.53;;;;;;;8.98;61.37;101783.94;5213864;28;21613;-75
2022/05/03 02:38:05;;;;;;;6.27;4.73;;;;;;;8.79;62.17;101795.09;5215041;28;20514;-74
2022/05/03 02:40:44;;;;;;;7.68;4.60;;;;;;;8.85;61.67;101794.84;5213621;28;20045;-75
2022/05/03 02:43:17;;;;;;;7.93;4.63;;;;;;;8.79;61.98;101795.09;5215071;28;20022;-74
2022/05/03 02:46:12;;;;;;;5.53;4.20;;;;;;;9.07;60.66;101794.03;5211103;28;20033;-74
2022/05/03 02:48:54;;;;;;;6.10;4.78;;;;;;;9.23;60.17;101799.53;5208541;28;20022;-74
2022/05/03 02:51:33;;;;;;;6.57;4.10;;;;;;;8.98;61.17;101799.63;5204608;28;20484;-75
2022/05/03 02:54:30;;;;;;;5.83;4.03;;;;;;;9.33;59.49;101797.41;5200250;28;20077;-74
2022/05/03 02:57:15;;;;;;;6.53;4.60;;;;;;;8.99;61.14;101793.50;5213676;28;20053;-74
2022/05/03 03:03:16;;;;;;;5.53;4.80;;;;;;;8.97;61.00;101797.91;5206832;28;20050;-75
2022/05/03 03:05:59;;;;;;;6.00;4.57;;;;;;;8.92;60.78;101804.16;5209894;28;20029;-74
2022/05/03 03:08:44;;;;;;;6.30;4.40;;;;;;;8.71;61.51;101782.28;5227816;28;20072;-74
2022/05/03 03:11:23;;;;;;;;;;;;;;;9.15;59.06;101791.97;5214199;28;20498;-73
2022/05/03 03:14:08;;;;;;;9.70;4.37;;;;;;;9.08;59.83;101791.38;5214933;28;20007;-74
2022/05/03 03:16:47;;;;;;;5.77;4.43;;;;;;;8.73;61.23;101796.16;5205963;28;20095;-74
2022/05/03 03:19:27;;;;;;;6.13;4.47;;;;;;;9.02;60.21;101793.38;5214529;28;20509;-74
2022/05/03 03:22:01;;;;;;;5.23;4.33;;;;;;;8.56;61.42;101776.75;5219647;28;20056;-74
2022/05/03 03:24:36;;;;;;;5.32;4.80;;;;;;;8.86;61.04;101790.47;5213661;28;20091;-74
2022/05/03 03:27:11;;;;;;;5.60;4.40;;;;;;;8.84;61.14;101795.75;5202851;28;20080;-74
2022/05/03 03:29:44;;;;;;;7.90;4.80;;;;;;;8.94;60.50;101797.13;5214317;28;20034;-73
2022/05/03 03:32:17;;;;;;;6.17;4.30;;;;;;;8.65;61.73;101798.19;5213848;28;20033;-74
2022/05/03 03:34:50;;;;;;;5.10;4.50;;;;;;;8.43;61.88;101797.16;5205552;28;20022;-74
2022/05/03 03:37:24;;;;;;;6.43;4.67;;;;;;;8.48;61.98;101803.06;5212617;28;20030;-74
2022/05/03 03:39:56;;;;;;;7.78;5.28;;;;;;;8.13;62.63;101786.06;5202455;28;20095;-74
2022/05/03 03:42:28;;;;;;;7.33;5.60;;;;;;;8.26;62.67;101789.06;5209965;28;20026;-74
2022/05/03 03:45:06;;;;;;;6.83;4.67;;;;;;;8.18;63.21;101790.22;5213532;28;20025;-72
2022/05/03 03:47:39;;;;;;;5.70;4.00;;;;;;;8.44;62.37;101796.28;5205096;28;20025;-73
2022/05/03 03:50:12;;;;;;;5.93;4.83;;;;;;;8.21;62.78;101790.09;5213084;28;20061;-74
2022/05/03 03:52:44;;;;;;;6.47;4.17;;;;;;;8.35;62.54;101796.59;5215426;28;20034;-74
2022/05/03 03:55:16;;;;;;;5.33;4.80;;;;;;;8.09;63.14;101785.31;5216063;28;20479;-74
2022/05/03 03:57:47;;;;;;;6.60;5.10;;;;;;;8.08;63.10;101794.88;5213642;28;20073;-73
2022/05/03 04:00:19;;;;;;;5.43;4.63;;;;;;;8.06;63.54;101795.84;5208994;28;20066;-74
2022/05/03 04:02:52;;;;;;;7.47;4.30;;;;;;;8.23;62.66;101792.66;5207618;28;20932;-74
2022/05/03 04:05:24;;;;;;;6.07;5.17;;;;;;;7.89;63.82;101784.22;5207933;28;20026;-71
2022/05/03 04:07:55;;;;;;;8.33;5.23;;;;;;;8.35;62.64;101794.84;5212387;28;20055;-74
2022/05/03 04:10:26;;;;;;;5.47;4.57;;;;;;;8.24;62.86;101789.13;5201816;28;20038;-74
2022/05/03 04:12:58;;;;;;;7.00;5.20;;;;;;;8.11;63.33;101793.94;5213659;28;20795;-74
2022/05/03 04:15:31;;;;;;;5.90;4.80;;;;;;;8.01;63.84;101797.75;5210695;28;20484;-74
2022/05/03 04:18:06;;;;;;;7.10;5.37;;;;;;;8.32;62.49;101789.75;5206725;28;20033;-74
2022/05/03 04:20:38;;;;;;;6.83;5.10;;;;;;;7.96;63.80;101793.53;5204172;28;20038;-74
2022/05/03 04:23:09;;;;;;;5.33;4.70;;;;;;;8.05;63.84;101794.13;5208501;28;20136;-73
2022/05/03 04:25:40;;;;;;;7.37;5.07;;;;;;;7.95;63.69;101796.19;5195626;28;20116;-74
2022/05/03 04:28:12;;;;;;;6.47;5.10;;;;;;;7.98;63.86;101796.94;5192491;28;20038;-74
2022/05/03 04:30:43;;;;;;;6.03;4.83;;;;;;;7.90;64.30;101798.97;5213050;28;20034;-74
2022/05/03 04:33:14;;;;;;;7.13;4.93;;;;;;;8.11;63.54;101805.22;5212873;28;20020;-73
2022/05/03 04:35:45;;;;;;;7.80;5.70;;;;;;;7.87;64.56;101799.91;5206928;28;20040;-74
2022/05/03 04:38:17;;;;;;;7.10;5.90;;;;;;;7.94;63.99;101803.16;5196809;28;20079;-74
2022/05/03 04:40:48;;;;;;;8.13;5.77;;;;;;;8.05;63.91;101799.34;5205335;28;20045;-74
2022/05/03 04:43:19;;;;;;;6.50;4.60;;;;;;;8.05;63.97;101791.50;5210601;28;20072;-74
2022/05/03 04:45:51;;;;;;;6.37;5.53;;;;;;;7.82;64.55;101801.00;5208376;28;20426;-73
2022/05/03 04:48:22;;;;;;;6.93;4.67;;;;;;;7.91;64.99;101815.47;5211148;28;20046;-74
2022/05/03 04:50:53;;;;;;;6.77;5.13;;;;;;;8.16;63.99;101818.13;5211701;28;20121;-73
2022/05/03 04:53:25;;;;;;;7.97;5.40;;;;;;;8.14;64.03;101814.69;5212646;28;20495;-75
2022/05/03 04:55:56;;;;;;;5.80;5.20;;;;;;;7.94;64.64;101815.38;5205548;28;20041;-73
2022/05/03 04:58:27;;;;;;;6.63;5.00;;;;;;;7.82;65.35;101808.81;5196137;28;20141;-74
2022/05/03 05:00:58;;;;;;;7.23;5.93;;;;;;;8.21;64.12;101820.56;5213005;28;20025;-74
2022/05/03 05:03:30;;;;;;;6.77;5.73;;;;;;;8.21;64.54;101815.34;5211461;28;20041;-73
2022/05/03 05:06:01;;;;;;;6.93;5.43;;;;;;;8.29;64.06;101812.47;5206886;28;20087;-74
2022/05/03 05:08:32;;;;;;;7.20;5.40;;;;;;;8.05;65.03;101820.22;5205194;28;20038;-74
2022/05/03 05:11:04;;;;;;;7.50;6.10;;;;;;;8.31;64.05;101831.53;5208472;28;20404;-74
2022/05/03 05:13:36;;;;;;;7.33;5.63;;;;;;;8.40;63.82;101815.56;5212498;28;20456;-73
2022/05/03 05:16:08;;;;;;;8.03;5.30;;;;;;;8.34;64.29;101826.22;5212343;28;20464;-73
2022/05/03 05:18:39;;;;;;;6.23;5.33;;;;;;;8.08;65.24;101823.56;5212720;28;20022;-73
2022/05/03 05:21:12;;;;;;;11.50;5.87;;;;;;;8.21;65.00;101821.41;5211699;28;20069;-74
2022/05/03 05:23:43;;;;;;;8.03;5.90;;;;;;;8.40;64.23;101827.75;5212455;28;20231;-73
2022/05/03 05:26:14;;;;;;;7.27;5.90;;;;;;;8.17;66.04;101834.63;5201460;28;20089;-73
2022/05/03 05:28:46;;;;;;;7.53;6.33;;;;;;;8.20;65.39;101835.34;5226982;28;20112;-73
2022/05/03 05:31:17;;;;;;;7.17;6.30;;;;;;;8.26;65.22;101839.53;5211329;28;20029;-74
2022/05/03 05:33:48;;;;;;;8.07;6.20;;;;;;;8.25;65.06;101836.97;5208369;28;20030;-74
2022/05/03 05:36:20;;;;;;;7.40;5.67;;;;;;;8.29;65.41;101841.19;5209901;28;20101;-74
2022/05/03 05:38:51;;;;;;;7.37;5.83;;;;;;;8.29;65.46;101843.81;5211418;28;20036;-74
2022/05/03 05:41:22;;;;;;;6.63;5.93;;;;;;;8.37;66.01;101860.03;5206166;28;20046;-73
2022/05/03 05:43:53;;;;;;;9.13;6.70;;;;;;;8.41;65.38;101847.75;5210092;28;20038;-73
2022/05/03 05:46:25;;;;;;;7.87;6.60;;;;;;;8.38;65.76;101853.91;5211823;28;20026;-71
2022/05/03 05:48:56;;;;;;;7.93;6.43;;;;;;;8.20;66.51;101851.00;5195649;28;20037;-73
2022/05/03 05:51:27;;;;;;;9.20;6.57;;;;;;;8.25;66.94;101847.41;5212896;28;20030;-73
2022/05/03 05:53:59;;;;;;;7.33;6.27;;;;;;;8.38;66.21;101853.91;5208168;28;20037;-77
2022/05/03 05:56:30;;;;;;;7.73;6.10;;;;;;;8.37;66.89;101854.81;5195870;28;20034;-77
2022/05/03 05:59:02;;;;;;;8.03;5.97;;;;;;;8.46;66.47;101857.13;5210298;28;20465;-78
2022/05/03 06:01:40;;;;;;;6.83;6.13;;;;;;;8.45;67.27;101852.81;5209229;28;20057;-78
2022/05/03 06:04:12;;;;;;;8.87;6.50;;;;;;;8.42;66.76;101850.31;5213086;28;20038;-77
2022/05/03 06:06:43;;;;;;;6.60;5.87;;;;;;;8.46;66.14;101844.06;5208703;28;20036;-78
2022/05/03 06:09:14;;;;;;;15.83;8.03;;;;;;;8.50;65.65;101855.25;5209330;28;20046;-77
2022/05/03 06:11:46;;;;;;;11.13;6.70;;;;;;;8.52;66.13;101847.38;5211441;28;20045;-77
2022/05/03 06:14:17;;;;;;;7.97;6.13;;;;;;;8.54;65.63;101848.16;5205408;28;20045;-77
2022/05/03 06:16:50;;;;;;;8.97;5.87;;;;;;;8.63;65.85;101857.47;5211754;28;20088;-76
2022/05/03 06:19:22;;;;;;;10.17;6.60;;;;;;;8.63;65.65;101863.53;5209282;28;20504;-77
2022/05/03 06:21:53;;;;;;;8.20;6.50;;;;;;;8.67;65.95;101862.53;5210497;28;20033;-72
2022/05/03 06:24:24;;;;;;;11.37;6.67;;;;;;;8.73;65.13;101858.84;5209347;28;20033;-77
2022/05/03 06:26:55;;;;;;;15.57;7.03;;;;;;;8.75;65.85;101853.56;5209875;28;20030;-77
2022/05/03 06:29:27;;;;;;;10.27;6.83;;;;;;;8.89;64.91;101858.28;5204779;28;20037;-77
2022/05/03 06:31:59;;;;;;;13.67;6.83;;;;;;;8.96;64.69;101865.00;5210481;28;20065;-77
2022/05/03 06:34:31;;;;;;;7.37;6.27;;;;;;;8.99;64.24;101853.59;5209613;28;20419;-77
2022/05/03 06:37:03;;;;;;;8.03;6.03;;;;;;;9.06;63.58;101861.13;5207219;28;20613;-77
2022/05/03 06:39:36;;;;;;;8.23;6.13;;;;;;;9.17;63.32;101855.50;5207109;28;20053;-77
2022/05/03 06:42:08;;;;;;;10.53;6.03;;;;;;;9.22;63.37;101852.72;5209389;28;20121;-76
2022/05/03 06:44:39;;;;;;;8.90;5.63;;;;;;;9.26;62.14;101845.59;5209636;28;20160;-77
2022/05/03 06:47:10;;;;;;;8.30;6.17;;;;;;;9.45;62.37;101853.59;5210584;28;20064;-77
2022/05/03 06:49:43;;;;;;;9.93;5.63;;;;;;;9.54;61.67;101855.88;5207861;28;20073;-78
2022/05/03 06:52:14;;;;;;;8.57;5.13;;;;;;;9.63;60.55;101854.66;5209938;28;20026;-77
2022/05/03 06:54:45;;;;;;;11.40;6.17;;;;;;;9.77;61.26;101854.06;5204959;28;20049;-78
2022/05/03 06:57:17;;;;;;;9.70;5.50;;;;;;;9.82;59.67;101855.66;5210790;28;20029;-77
2022/05/03 06:59:49;;;;;;;6.40;5.00;;;;;;;9.87;58.43;101859.81;5209633;28;20042;-78
2022/05/03 07:02:20;;;;;;;8.53;4.50;;;;;;;10.02;58.31;101860.06;5211000;28;20184;-77
2022/05/03 07:04:51;;;;;;;7.60;4.13;;;;;;;10.15;55.64;101871.75;5204605;28;20474;-76
2022/05/03 07:07:22;;;;;;;6.87;4.47;;;;;;;10.23;55.54;101867.94;5205337;28;20045;-77
2022/05/03 07:09:54;;;;;;;4.90;3.73;;;;;;;10.47;52.81;101868.72;5207423;28;20054;-77
2022/05/03 07:12:27;;;;;;;6.53;3.60;;;;;;;10.60;52.14;101866.41;5208549;28;20036;-77
2022/05/03 07:14:59;;;;;;;8.07;4.03;;;;;;;10.99;51.97;101871.72;5202529;28;20038;-77
2022/05/03 07:23:11;;;;;;;5.30;4.07;;;;;;;12.09;49.11;101862.25;5214690;28;20038;-77
2022/05/03 07:25:44;;;;;;;7.57;3.70;;;;;;;12.45;48.06;101869.19;5208999;28;20038;-77
2022/05/03 07:28:15;;;;;;;4.90;3.53;;;;;;;12.84;44.87;101858.47;5210578;28;20017;-77
2022/05/03 07:30:47;;;;;;;8.33;3.33;;;;;;;13.43;44.43;101859.69;5212380;28;20389;-77
2022/05/03 07:33:18;;;;;;;3.37;2.90;;;;;;;13.87;42.54;101863.41;5210728;28;21021;-78
2022/05/03 07:35:49;;;;;;;7.27;2.70;;;;;;;14.54;40.32;101871.81;5213305;28;20071;-77
2022/05/03 07:38:21;;;;;;;4.87;2.93;;;;;;;15.17;37.93;101874.16;5201873;28;20572;-78
2022/05/03 07:40:52;;;;;;;4.00;2.20;;;;;;;15.77;36.91;101865.13;5213264;28;20095;-78
2022/05/03 07:43:23;;;;;;;3.30;2.00;;;;;;;16.44;36.01;101866.84;5212676;28;20045;-77
2022/05/03 07:45:55;;;;;;;3.67;2.63;;;;;;;16.94;33.47;101873.16;5213545;28;20030;-78
2022/05/03 07:48:26;;;;;;;4.23;2.20;;;;;;;17.60;33.00;101857.94;5203444;28;20076;-78
2022/05/03 07:50:58;;;;;;;2.23;1.80;;;;;;;18.26;32.62;101867.19;5211913;28;20030;-78
2022/05/03 07:53:29;;;;;;;4.60;2.10;;;;;;;18.82;31.35;101864.69;5214007;28;20117;-78
2022/05/03 07:56:00;;;;;;;4.30;2.10;;;;;;;19.26;30.38;101864.78;5210879;28;20618;-77
2022/05/03 07:58:32;;;;;;;6.90;2.60;;;;;;;19.62;29.76;101858.41;5210422;28;20034;-78
2022/05/03 08:01:05;;;;;;;3.13;2.50;;;;;;;19.87;29.41;101862.50;5211308;28;20480;-77
2022/05/03 08:03:36;;;;;;;7.80;2.60;;;;;;;20.21;28.52;101864.19;5207795;28;20391;-74
2022/05/03 08:06:07;;;;;;;4.50;2.50;;;;;;;20.65;28.58;101857.78;5206053;28;20026;-76
2022/05/03 08:08:38;;;;;;;6.10;2.92;;;;;;;20.76;28.61;101860.34;5206845;28;20080;-76
2022/05/03 08:11:10;;;;;;;4.22;2.53;;;;;;;21.25;27.63;101866.81;5211597;28;20034;-77
2022/05/03 08:13:42;;;;;;;7.63;4.07;;;;;;;21.91;28.05;101855.59;5212395;28;20036;-77
2022/05/03 08:16:18;;;;;;;5.32;2.45;;;;;;;21.86;27.44;101864.88;5210136;28;20497;-77
2022/05/03 08:18:49;;;;;;;10.30;3.17;;;;;;;21.99;26.00;101867.25;5213071;28;20496;-77
2022/05/03 08:21:20;;;;;;;5.35;2.70;;;;;;;22.31;26.18;101869.69;5209605;28;20038;-77
2022/05/03 08:23:52;;;;;;;4.78;2.60;;;;;;;22.61;26.35;101859.75;5210840;28;20029;-77
2022/05/03 08:26:23;;;;;;;3.22;2.72;;;;;;;23.12;25.86;101875.41;5211862;28;20018;-76
2022/05/03 08:28:54;;;;;;;3.22;2.92;;;;;;;22.48;25.06;101874.28;5208713;28;20030;-78
2022/05/03 08:31:26;;;;;;;5.60;3.13;;;;;;;23.30;25.57;101886.09;5211744;28;20036;-78
2022/05/03 08:34:01;;;;;;;7.40;3.60;;;;;;;23.87;25.35;101864.56;5206419;28;20022;-78
2022/05/03 08:36:33;;;;;;;4.00;3.47;;;;;;;23.52;25.39;101885.84;5204726;28;20025;-77
2022/05/03 08:42:06;;;;;;;4.50;3.40;;;;;;;24.03;23.92;101870.06;5210189;28;20029;-79
2022/05/03 08:44:37;;;;;;;5.28;3.95;;;;;;;24.87;23.48;101873.16;5211905;28;20030;-78
2022/05/03 08:47:08;;;;;;;8.30;4.20;;;;;;;24.59;23.89;101876.91;5209614;28;20069;-79
2022/05/03 08:49:44;;;;;;;4.57;3.90;;;;;;;24.92;24.17;101875.38;5210209;28;20045;-79
2022/05/03 08:52:17;;;;;;;5.88;4.05;;;;;;;26.01;23.86;101877.16;5211086;28;20072;-79
2022/05/03 08:54:49;;;;;;;5.85;4.03;;;;;;;25.42;23.73;101875.47;5210523;28;20056;-79
2022/05/03 08:57:22;;;;;;;7.80;4.63;;;;;;;25.27;23.31;101878.81;5206420;28;20153;-78
2022/05/03 08:59:54;;;;;;;5.15;4.38;;;;;;;25.59;23.32;101877.16;5210112;28;20156;-72
2022/05/03 09:02:25;;;;;;;7.18;4.28;;;;;;;25.59;23.61;101874.47;5199863;28;20085;-82
2022/05/03 09:04:56;;;;;;;5.72;4.40;;;;;;;26.62;22.46;101869.63;5206520;28;20021;-77
2022/05/03 09:07:28;;;;;;;7.70;4.47;;;;;;;27.11;22.56;101883.81;5208636;28;20026;-77
2022/05/03 09:10:14;;;;;;;5.60;4.40;;;;;;;27.14;23.92;101883.50;5208559;28;20088;-78
2022/05/03 09:12:47;;;;;;;5.13;4.25;;;;;;;27.70;21.68;101873.53;5200348;28;21625;-80
2022/05/03 09:15:32;;;;;;;9.25;4.72;;;;;;;27.64;22.83;101875.88;5207503;28;20021;-78
2022/05/03 09:18:03;;;;;;;8.68;4.63;;;;;;;27.45;22.48;101879.91;5211466;28;20022;-77
2022/05/03 09:26:22;;;;;;;7.47;4.03;;;;;;;27.38;22.17;101879.81;5210985;28;20066;-77
2022/05/03 09:28:55;;;;;;;6.95;4.05;;;;;;;28.13;21.59;101876.47;5211873;28;20080;-72
2022/05/03 09:31:31;;;;;;;4.32;3.92;;;;;;;27.32;22.12;101887.75;5211384;28;20030;-85
2022/05/03 09:34:27;;;;;;;6.38;4.07;;;;;;;27.42;22.36;101880.28;5207919;28;20030;-86
2022/05/03 09:37:02;;;;;;;4.65;4.25;;;;;;;28.02;21.82;101882.28;5218847;28;20412;-82
2022/05/03 09:39:46;;;;;;;4.68;4.15;;;;;;;27.76;22.05;101879.00;5210024;28;20033;-77
2022/05/03 09:42:18;;;;;;;;;;;;;;;29.74;22.06;101876.81;5208791;28;20109;-87
2022/05/03 09:45:02;;;;;;;9.10;4.07;;;;;;;29.28;22.15;101876.19;5211918;28;20012;-83
2022/05/03 09:47:46;;;;;;;6.32;4.18;;;;;;;27.90;22.60;101876.53;5210528;28;20041;-83
2022/05/03 09:50:45;;;;;;;5.10;4.47;;;;;;;29.21;22.02;101871.59;5209462;28;20533;-80
2022/05/03 09:53:22;;;;;;;8.20;4.30;;;;;;;28.52;22.15;101872.84;5205990;28;20034;-76
2022/05/03 09:55:54;;;;;;;8.38;4.85;;;;;;;28.23;21.62;101869.94;5211600;28;20046;-72
2022/05/03 09:58:27;;;;;;;5.18;4.55;;;;;;;29.37;21.08;101864.25;5210513;28;20523;-83
2022/05/03 10:00:59;;;;;;;6.57;4.28;;;;;;;29.13;21.12;101868.19;5210379;28;20026;-79
2022/05/03 10:03:31;;;;;;;7.18;4.78;;;;;;;28.35;21.57;101846.94;5210682;28;20076;-78
2022/05/03 10:06:02;;;;;;;4.93;4.38;;;;;;;28.48;22.00;101867.84;5210308;28;20026;-76
2022/05/03 10:08:34;;;;;;;8.70;4.90;;;;;;;29.78;20.65;101869.97;5210106;28;20140;-80
2022/05/03 10:11:05;;;;;;;9.43;4.80;;;;;;;29.23;20.70;101868.69;5209569;28;20025;-76
2022/05/03 10:13:37;;;;;;;14.82;4.68;;;;;;;28.83;21.63;101869.06;5211500;28;20061;-77
2022/05/03 10:21:59;;;;;;;4.32;3.92;;;;;;;29.73;21.30;101861.63;5210393;28;20124;-75
2022/05/03 10:24:31;;;;;;;8.30;4.50;;;;;;;30.17;20.49;101852.38;5209080;28;20420;-74
2022/05/03 10:27:06;;;;;;;5.93;4.55;;;;;;;30.73;20.38;101865.09;5210832;28;20044;-76
2022/05/03 10:29:38;;;;;;;6.05;5.15;;;;;;;29.77;20.50;101858.38;5210269;28;20383;-83
2022/05/03 10:32:09;;;;;;;5.70;4.82;;;;;;;29.99;20.44;101858.28;5211805;28;20030;-79
2022/05/03 10:34:56;;;;;;;6.57;5.05;;;;;;;31.11;20.33;101850.22;5211220;28;20678;-76
2022/05/03 10:37:33;;;;;;;6.25;4.63;;;;;;;30.69;20.30;101853.88;5214933;28;20087;-80
2022/05/03 10:40:12;;;;;;;9.18;5.22;;;;;;;29.89;20.79;101842.47;5209552;28;20494;-78
2022/05/03 10:43:06;;;;;;;4.57;3.70;;;;;;;31.00;20.86;101849.00;5210667;28;20057;-75
2022/05/03 10:46:10;;;;;;;3.58;3.28;;;;;;;31.00;20.60;101843.59;5211057;28;20030;-72
2022/05/03 10:48:41;;;;;;;7.13;3.25;;;;;;;31.59;19.14;101851.13;5196502;28;20335;-79
2022/05/03 10:51:15;;;;;;;5.22;4.72;;;;;;;30.09;20.06;101849.84;5196695;28;20061;-84
2022/05/03 10:53:58;;;;;;;5.65;4.60;;;;;;;29.40;21.34;101836.88;5201983;28;20033;-83
2022/05/03 10:56:29;;;;;;;;;;;;;;;31.37;20.31;101837.75;5213232;28;20076;-86
2022/05/03 10:59:05;;;;;;;6.15;4.03;;;;;;;29.08;21.74;101839.09;5213016;28;19910;-86
2022/05/03 11:01:55;;;;;;;4.63;4.18;;;;;;;29.46;21.80;101835.28;5213757;28;20516;-81
2022/05/03 11:04:30;;;;;;;5.60;5.00;;;;;;;28.27;22.05;101834.41;5196189;28;20476;-85
2022/05/03 11:07:01;;;;;;;6.60;4.80;;;;;;;28.94;22.54;101830.81;5201190;28;20384;-81
2022/05/03 11:09:33;;;;;;;5.40;4.90;;;;;;;29.59;21.82;101829.97;5198598;28;20085;-77
2022/05/03 11:12:06;;;;;;;6.10;4.50;;;;;;;29.09;22.13;101827.28;5202285;28;20038;-83
2022/05/03 11:14:37;;;;;;;5.00;4.50;;;;;;;28.09;22.28;101829.38;5203433;28;20033;-79
2022/05/03 11:17:09;;;;;;;7.22;4.40;;;;;;;27.62;22.96;101826.81;5203624;28;20114;-79
2022/05/03 11:19:43;;;;;;;10.27;4.88;;;;;;;27.37;23.70;101824.31;5202323;28;20034;-81
2022/05/03 11:22:35;;;;;;;5.03;4.53;;;;;;;28.47;23.05;101817.66;5203402;28;20038;-77
2022/05/03 11:25:12;;;;;;;6.80;5.68;;;;;;;28.00;23.02;101815.16;5216147;28;20040;-76
2022/05/03 11:27:44;;;;;;;6.10;5.20;;;;;;;28.51;22.53;101812.75;5202556;28;20030;-84
2022/05/03 11:30:16;;;;;;;4.90;4.40;;;;;;;27.97;23.49;101803.94;5201368;28;20034;-82
2022/05/03 11:32:47;;;;;;;6.70;4.13;;;;;;;28.01;23.44;101803.38;5203482;28;20033;-85
2022/05/03 11:35:22;;;;;;;9.07;5.38;;;;;;;27.41;23.77;101814.88;5201367;28;20022;-84
2022/05/03 11:37:59;;;;;;;6.30;4.90;;;;;;;27.23;24.19;101817.06;5201881;28;20529;-84
2022/05/03 11:40:30;;;;;;;7.57;5.63;;;;;;;25.74;25.77;101804.09;5201698;28;20044;-78
2022/05/03 11:43:02;;;;;;;8.63;4.97;;;;;;;26.60;25.17;101804.50;5202485;28;20623;-84
2022/05/03 11:45:36;;;;;;;7.53;5.78;;;;;;;26.87;24.79;101799.63;5200671;28;20038;-86
2022/05/03 11:48:08;;;;;;;7.20;5.43;;;;;;;27.68;24.73;101787.56;5201222;28;20179;-85
2022/05/03 11:56:24;;;;;;;6.63;4.80;;;;;;;26.37;25.46;101794.53;5202070;28;20077;-79
2022/05/03 11:58:56;;;;;;;7.50;6.53;;;;;;;25.76;26.10;101780.63;5202013;28;20029;-80
2022/05/03 12:01:32;;;;;;;11.38;6.03;;;;;;;26.44;25.72;101782.91;5201951;28;20034;-79
2022/05/03 12:04:05;;;;;;;5.53;4.97;;;;;;;25.31;26.65;101789.00;5201035;28;20545;-78
2022/05/03 12:06:43;;;;;;;6.38;4.60;;;;;;;25.22;26.54;101785.47;5201405;28;20045;-83
2022/05/03 12:09:19;;;;;;;5.40;4.78;;;;;;;25.22;26.54;101776.63;5198764;28;20046;-79
2022/05/03 12:14:46;;;;;;;5.72;4.80;;;;;;;24.40;27.31;101782.44;5202103;28;20041;-78
2022/05/03 12:17:18;;;;;;;4.30;3.65;;;;;;;24.58;26.34;101778.81;5202055;28;20026;-73
2022/05/03 12:19:59;;;;;;;5.28;3.33;;;;;;;25.54;26.55;101772.22;5202320;28;20014;-72
2022/05/03 12:22:32;;;;;;;5.57;2.72;;;;;;;25.48;25.84;101763.00;5202013;28;20030;-81
2022/05/03 12:25:04;;;;;;;4.30;3.67;;;;;;;25.03;26.97;101757.16;5200301;28;20066;-79
2022/05/03 12:27:35;;;;;;;5.55;4.72;;;;;;;25.20;26.92;101763.38;5201787;28;20116;-76
2022/05/03 12:30:10;;;;;;;14.60;5.13;;;;;;;24.71;27.74;101750.72;5201968;28;20536;-77
2022/05/03 12:32:41;;;;;;;6.15;4.63;;;;;;;25.23;27.64;101748.78;5203885;28;20041;-78
2022/05/03 12:35:14;;;;;;;6.97;3.80;;;;;;;24.40;29.39;101753.00;5203957;28;20774;-78
2022/05/03 12:37:52;;;;;;;7.43;4.47;;;;;;;25.27;27.69;101754.66;5199305;28;20038;-72
2022/05/03 12:40:27;;;;;;;7.35;4.95;;;;;;;24.29;29.13;101748.78;5200973;28;20037;-84
2022/05/03 12:43:09;;;;;;;5.93;4.50;;;;;;;25.61;27.72;101746.41;5201875;28;20519;-82